Time;durP1;ratioP1;P1;durP2;ratioP2;P2;SDS_P1;SDS_P2;PMS_P1;PMS_P2;Temp;Humidity;BMP_temperature;BMP_pressure;BME280_temperature;BME280_humidity;BME280_pressure;Samples;Min_cycle;Max_cycle;Signal;HPM_P1;HPM_P2
2023/02/16 00:00:21;;;;;;;58.40;33.75;;;6.40;99.90;;;;;;4995336;28;95168;-75
2023/02/16 00:02:48;;;;;;;53.97;33.27;;;6.40;99.90;;;;;;4994125;28;93457;-75
2023/02/16 00:05:30;;;;;;;56.33;33.30;;;6.30;99.90;;;;;;4994369;28;92575;-76
2023/02/16 00:07:58;;;;;;;55.40;33.15;;;6.30;99.90;;;;;;4977463;28;95598;-75
2023/02/16 00:10:29;;;;;;;58.95;33.58;;;6.30;99.90;;;;;;4994095;28;93168;-75
2023/02/16 00:15:42;;;;;;;52.85;31.10;;;6.30;99.90;;;;;;4995684;28;91615;-76
2023/02/16 00:18:19;;;;;;;57.42;33.45;;;6.20;99.90;;;;;;4994106;28;93151;-75
2023/02/16 00:20:47;;;;;;;59.53;33.78;;;6.30;99.90;;;;;;4993691;28;93207;-76
2023/02/16 00:23:14;;;;;;;58.00;32.83;;;6.20;99.90;;;;;;4976444;28;94782;-75
2023/02/16 00:25:41;;;;;;;53.58;31.45;;;6.20;99.90;;;;;;4994027;28;92448;-75
2023/02/16 00:28:16;;;;;;;54.85;33.80;;;6.20;99.90;;;;;;4993632;28;96212;-75
2023/02/16 00:30:44;;;;;;;55.50;32.05;;;6.20;99.90;;;;;;4995343;28;93070;-76
2023/02/16 00:33:18;;;;;;;51.08;33.20;;;6.10;99.90;;;;;;4993922;28;92542;-75
2023/02/16 00:35:45;;;;;;;57.22;32.30;;;6.10;99.90;;;;;;4993532;28;92528;-75
2023/02/16 00:38:15;;;;;;;52.72;31.92;;;6.10;99.90;;;;;;4993352;28;96287;-75
2023/02/16 00:40:42;;;;;;;52.20;31.85;;;6.10;99.90;;;;;;4977670;28;92010;-76
2023/02/16 00:43:24;;;;;;;53.28;33.33;;;6.10;99.90;;;;;;4995064;28;92487;-75
2023/02/16 00:45:52;;;;;;;55.75;31.83;;;6.10;99.90;;;;;;4993998;28;93218;-75
2023/02/16 00:48:20;;;;;;;58.95;33.47;;;6.00;99.90;;;;;;4993328;28;95809;-75
2023/02/16 00:50:47;;;;;;;53.45;32.45;;;6.00;99.90;;;;;;4976714;28;98091;-75
2023/02/16 00:53:16;;;;;;;57.83;35.05;;;6.00;99.90;;;;;;4977354;28;92452;-75
2023/02/16 00:55:44;;;;;;;53.80;33.55;;;6.00;99.90;;;;;;4993088;28;92528;-76
2023/02/16 00:58:23;;;;;;;54.15;33.20;;;6.00;99.90;;;;;;4993230;28;96012;-75
2023/02/16 01:00:58;;;;;;;57.40;33.97;;;6.00;99.90;;;;;;4993026;28;94277;-76
2023/02/16 01:03:27;;;;;;;55.50;33.83;;;5.90;99.90;;;;;;4977019;28;92456;-75
2023/02/16 01:11:32;;;;;;;57.88;33.58;;;5.80;99.90;;;;;;4979132;28;95954;-76
2023/02/16 01:14:00;;;;;;;58.28;33.50;;;5.80;99.90;;;;;;4993242;28;94900;-76
2023/02/16 01:16:37;;;;;;;57.30;32.67;;;5.80;99.90;;;;;;4993507;28;92636;-75
2023/02/16 01:19:04;;;;;;;;;;;5.80;99.90;;;;;;4995095;28;93402;-75
2023/02/16 01:21:31;;;;;;;58.10;34.08;;;5.70;99.90;;;;;;4994742;28;94990;-75
2023/02/16 01:24:00;;;;;;;55.20;32.60;;;5.70;99.90;;;;;;4994510;28;92506;-75
2023/02/16 01:26:36;;;;;;;60.50;34.22;;;5.70;99.90;;;;;;4980233;28;92650;-75
2023/02/16 01:29:03;;;;;;;56.83;33.88;;;5.70;99.90;;;;;;4979562;28;95825;-75
2023/02/16 01:31:30;;;;;;;54.75;33.67;;;5.70;99.90;;;;;;4996848;28;94099;-75
2023/02/16 01:34:00;;;;;;;55.85;32.72;;;5.70;99.90;;;;;;4997676;28;92465;-75
2023/02/16 01:36:33;;;;;;;56.58;33.40;;;5.70;99.90;;;;;;4979807;28;92735;-75
2023/02/16 01:39:00;;;;;;;53.20;32.00;;;5.70;99.90;;;;;;4978318;28;98360;-75
2023/02/16 01:41:36;;;;;;;60.72;33.75;;;5.70;99.90;;;;;;4996164;28;97860;-75
2023/02/16 01:44:26;;;;;;;55.97;33.85;;;5.70;99.90;;;;;;4996585;28;92551;-75
2023/02/16 01:47:22;;;;;;;55.90;32.67;;;5.70;99.90;;;;;;4979599;28;92417;-75
2023/02/16 01:49:49;;;;;;;54.20;34.05;;;5.70;99.90;;;;;;4997437;28;93206;-75
2023/02/16 01:52:33;;;;;;;55.40;32.97;;;5.60;99.90;;;;;;4996244;28;92503;-76
2023/02/16 01:55:26;;;;;;;60.50;33.15;;;5.70;99.90;;;;;;4995581;28;92587;-76
2023/02/16 01:58:05;;;;;;;61.83;35.03;;;5.70;99.90;;;;;;4997783;28;91674;-75
2023/02/16 02:00:50;;;;;;;57.88;33.45;;;5.60;99.90;;;;;;4995859;28;95834;-75
2023/02/16 02:06:21;;;;;;;52.65;33.20;;;5.60;99.90;;;;;;4994831;28;94782;-75
2023/02/16 02:09:13;;;;;;;55.22;34.45;;;5.60;99.90;;;;;;4995684;28;92990;-75
2023/02/16 02:11:50;;;;;;;;;;;5.60;99.90;;;;;;4979963;28;95914;-75
2023/02/16 02:14:18;;;;;;;60.58;34.33;;;5.50;99.90;;;;;;4981160;28;95149;-75
2023/02/16 02:17:04;;;;;;;58.63;34.92;;;5.40;99.90;;;;;;4996143;28;92997;-75
2023/02/16 02:19:55;;;;;;;58.70;34.17;;;5.50;99.90;;;;;;4979508;28;92403;-75
2023/02/16 02:25:38;;;;;;;;;;;5.50;99.90;;;;;;4996399;28;95768;-75
2023/02/16 02:28:24;;;;;;;56.80;32.75;;;5.40;99.90;;;;;;4997358;28;92681;-75
2023/02/16 02:31:08;;;;;;;59.95;35.88;;;5.40;99.90;;;;;;4995399;28;92439;-75
2023/02/16 02:33:36;;;;;;;58.10;34.83;;;5.40;99.90;;;;;;4994136;28;98278;-75
2023/02/16 02:36:13;;;;;;;60.55;36.45;;;5.40;99.90;;;;;;4994975;28;98196;-75
2023/02/16 02:38:55;;;;;;;63.67;35.90;;;5.40;99.90;;;;;;4995408;28;92452;-75
2023/02/16 02:44:25;;;;;;;57.60;36.05;;;5.40;99.90;;;;;;4995302;28;94696;-75
2023/02/16 02:46:53;;;;;;;58.08;35.53;;;5.40;99.90;;;;;;4994942;28;95679;-75
2023/02/16 02:49:21;;;;;;;65.72;37.63;;;5.40;99.90;;;;;;4995403;28;93067;-75
2023/02/16 02:51:49;;;;;;;59.65;35.15;;;5.40;99.90;;;;;;4995887;28;91992;-75
2023/02/16 03:00:46;;;;;;;67.75;36.13;;;5.40;99.90;;;;;;4994182;28;94914;-75
2023/02/16 03:03:26;;;;;;;60.30;37.40;;;5.40;99.90;;;;;;4994887;28;92443;-75
2023/02/16 03:06:10;;;;;;;64.30;36.45;;;5.40;99.90;;;;;;4996485;28;92459;-75
2023/02/16 03:08:40;;;;;;;58.83;36.13;;;5.40;99.90;;;;;;4995482;28;93435;-75
2023/02/16 03:14:05;;;;;;;59.03;35.65;;;5.40;99.90;;;;;;4996393;28;92454;-75
2023/02/16 03:16:45;;;;;;;59.83;37.60;;;5.30;99.90;;;;;;4995222;28;93230;-75
2023/02/16 03:30:28;;;;;;;63.15;38.13;;;5.40;99.90;;;;;;4995988;28;95874;-76
2023/02/16 03:32:56;;;;;;;58.72;35.28;;;5.40;99.90;;;;;;4978174;28;92976;-76
2023/02/16 03:35:24;;;;;;;61.08;37.63;;;5.40;99.90;;;;;;4977776;28;92571;-76
2023/02/16 03:37:51;;;;;;;62.58;36.80;;;5.50;99.90;;;;;;4994388;28;95711;-75
2023/02/16 03:40:29;;;;;;;66.88;38.63;;;5.50;99.90;;;;;;4994104;28;95796;-76
2023/02/16 03:43:01;;;;;;;66.72;38.10;;;5.50;99.90;;;;;;4994648;28;92592;-75
2023/02/16 03:45:30;;;;;;;61.55;37.30;;;5.60;99.90;;;;;;4996435;28;91677;-75
2023/02/16 03:47:57;;;;;;;61.47;37.72;;;5.60;99.90;;;;;;4994692;28;93282;-75
2023/02/16 03:50:25;;;;;;;64.30;37.85;;;5.70;99.90;;;;;;4994131;28;92939;-75
2023/02/16 03:53:05;;;;;;;64.40;37.90;;;5.70;99.90;;;;;;4993301;28;94932;-75
2023/02/16 03:55:44;;;;;;;64.32;36.47;;;5.80;99.90;;;;;;4979484;28;92403;-75
2023/02/16 03:58:17;;;;;;;64.50;37.92;;;5.90;99.90;;;;;;4993979;28;93297;-75
2023/02/16 04:00:45;;;;;;;60.80;35.23;;;5.90;99.90;;;;;;4994348;28;93495;-75
2023/02/16 04:03:12;;;;;;;65.47;39.63;;;5.90;99.90;;;;;;4995295;28;94224;-75
2023/02/16 04:05:39;;;;;;;62.97;38.13;;;6.00;99.90;;;;;;4994335;28;92438;-75
2023/02/16 04:08:08;;;;;;;64.40;38.28;;;6.00;99.90;;;;;;4995204;28;93258;-75
2023/02/16 04:10:35;;;;;;;66.55;38.95;;;6.10;99.90;;;;;;4994174;28;95813;-75
2023/02/16 04:13:02;;;;;;;66.80;40.00;;;6.10;99.90;;;;;;4994297;28;93214;-75
2023/02/16 04:15:30;;;;;;;60.35;38.08;;;6.20;99.90;;;;;;4995281;28;92493;-75
2023/02/16 04:17:57;;;;;;;68.43;39.70;;;6.20;99.90;;;;;;4992428;28;98378;-75
2023/02/16 04:20:27;;;;;;;64.10;39.53;;;6.30;99.90;;;;;;4977062;28;98306;-75
2023/02/16 04:22:54;;;;;;;70.93;37.85;;;6.30;99.90;;;;;;4995273;28;92543;-76
2023/02/16 04:25:21;;;;;;;65.72;39.22;;;6.30;99.90;;;;;;4995031;28;92545;-76
2023/02/16 04:27:49;;;;;;;60.00;37.13;;;6.40;99.90;;;;;;4977362;28;95586;-76
2023/02/16 04:30:18;;;;;;;63.67;37.92;;;6.40;99.90;;;;;;4993506;28;93038;-75
2023/02/16 04:32:46;;;;;;;66.68;41.50;;;6.50;99.90;;;;;;4993956;28;92522;-76
2023/02/16 04:35:14;;;;;;;61.63;36.65;;;6.50;99.90;;;;;;4994120;28;91703;-76
2023/02/16 04:37:41;;;;;;;66.63;38.72;;;6.50;99.90;;;;;;4993539;28;94401;-76
2023/02/16 04:40:12;;;;;;;67.72;38.17;;;6.50;99.90;;;;;;4994555;28;93116;-75
2023/02/16 04:42:43;;;;;;;68.88;39.50;;;6.60;99.90;;;;;;4975940;28;94954;-75
2023/02/16 04:45:11;;;;;;;65.53;38.70;;;6.60;99.90;;;;;;4976967;28;92686;-75
2023/02/16 04:47:38;;;;;;;64.95;38.33;;;6.60;99.90;;;;;;4994633;28;93275;-75
2023/02/16 04:50:08;;;;;;;65.65;39.63;;;6.70;99.90;;;;;;4993549;28;92912;-76
2023/02/16 04:52:36;;;;;;;64.93;42.28;;;6.70;99.90;;;;;;4976839;28;92561;-75
2023/02/16 04:55:04;;;;;;;65.97;39.38;;;6.70;99.90;;;;;;4993079;28;92451;-75
2023/02/16 04:57:31;;;;;;;65.85;39.05;;;6.70;99.90;;;;;;4976868;28;94342;-75
2023/02/16 04:59:58;;;;;;;63.38;39.05;;;6.70;99.90;;;;;;4996751;28;93066;-75
2023/02/16 05:02:25;;;;;;;65.57;39.45;;;6.70;99.90;;;;;;4997168;28;93387;-75
2023/02/16 05:04:52;;;;;;;71.40;40.40;;;6.80;99.90;;;;;;4996794;28;92485;-75
2023/02/16 05:07:19;;;;;;;68.70;41.17;;;6.80;99.90;;;;;;4962710;28;98094;-75
2023/02/16 05:09:46;;;;;;;61.97;39.58;;;6.80;99.90;;;;;;4980248;28;97997;-75
2023/02/16 05:14:59;;;;;;;62.65;38.08;;;6.80;99.90;;;;;;4996751;28;92539;-76
2023/02/16 05:17:26;;;;;;;61.25;38.38;;;6.80;99.90;;;;;;4996481;28;93225;-75
2023/02/16 05:19:56;;;;;;;65.93;40.47;;;6.90;99.90;;;;;;4998185;28;93413;-75
2023/02/16 05:22:24;;;;;;;69.18;42.47;;;6.80;99.90;;;;;;4997980;28;93128;-75
2023/02/16 05:24:51;;;;;;;65.28;40.10;;;6.90;99.90;;;;;;4997214;28;91783;-75
2023/02/16 05:27:21;;;;;;;66.30;40.20;;;6.90;99.90;;;;;;4996226;28;95830;-76
2023/02/16 05:29:48;;;;;;;62.63;39.95;;;6.90;99.90;;;;;;4997945;28;92880;-76
2023/02/16 05:32:16;;;;;;;62.13;38.38;;;6.90;99.90;;;;;;4978535;28;94923;-76
2023/02/16 05:34:44;;;;;;;64.75;40.53;;;7.00;99.90;;;;;;4998011;28;92942;-76
2023/02/16 05:37:13;;;;;;;65.55;39.92;;;7.00;99.90;;;;;;4980326;28;93267;-76
2023/02/16 05:39:41;;;;;;;63.13;40.92;;;7.00;99.90;;;;;;4996204;28;95795;-76
2023/02/16 05:42:08;;;;;;;62.75;38.80;;;7.00;99.90;;;;;;4997838;28;92433;-76
2023/02/16 05:44:36;;;;;;;64.68;40.15;;;7.00;99.90;;;;;;4979703;28;92579;-76
2023/02/16 05:47:03;;;;;;;65.60;39.78;;;7.10;99.90;;;;;;4996235;28;95610;-76
2023/02/16 05:49:31;;;;;;;67.32;40.63;;;7.10;99.90;;;;;;4997576;28;92935;-76
2023/02/16 05:51:58;;;;;;;63.05;41.03;;;7.10;99.90;;;;;;4979705;28;92374;-76
2023/02/16 05:54:26;;;;;;;62.25;40.35;;;7.10;99.90;;;;;;4996113;28;95165;-76
2023/02/16 05:56:53;;;;;;;68.20;40.35;;;7.10;99.90;;;;;;4995865;28;95637;-76
2023/02/16 05:59:20;;;;;;;61.42;38.42;;;7.10;99.90;;;;;;4979230;28;98253;-76
2023/02/16 06:01:47;;;;;;;61.10;40.13;;;7.10;99.90;;;;;;4996188;28;92739;-76
2023/02/16 06:04:18;;;;;;;64.00;39.92;;;7.10;99.90;;;;;;4996454;28;92867;-76
2023/02/16 06:06:46;;;;;;;61.10;39.17;;;7.20;99.90;;;;;;4996121;28;93197;-76
2023/02/16 06:09:13;;;;;;;60.85;38.60;;;7.20;99.90;;;;;;4997223;28;93311;-76
2023/02/16 06:11:40;;;;;;;60.33;38.65;;;7.20;99.90;;;;;;4995137;28;92471;-75
2023/02/16 06:14:10;;;;;;;62.53;39.45;;;7.20;99.90;;;;;;4997616;28;91728;-75
2023/02/16 06:16:40;;;;;;;64.78;39.10;;;7.20;99.90;;;;;;4995518;28;95775;-76
2023/02/16 06:19:08;;;;;;;66.38;41.20;;;7.20;99.90;;;;;;4996937;28;92619;-76
2023/02/16 06:21:36;;;;;;;62.55;40.78;;;7.20;99.90;;;;;;4995830;28;94902;-76
2023/02/16 06:24:03;;;;;;;63.05;40.05;;;7.20;99.90;;;;;;4997097;28;92949;-76
2023/02/16 06:26:31;;;;;;;63.83;39.47;;;7.20;99.90;;;;;;4996654;28;93276;-76
2023/02/16 06:28:58;;;;;;;63.50;40.15;;;7.20;99.90;;;;;;4996983;28;93103;-76
2023/02/16 06:31:26;;;;;;;60.10;40.72;;;7.20;99.90;;;;;;4995484;28;92520;-76
2023/02/16 06:33:55;;;;;;;68.80;42.20;;;7.20;99.90;;;;;;4997069;28;92433;-77
2023/02/16 06:36:23;;;;;;;65.05;41.28;;;7.20;99.90;;;;;;4979321;28;93292;-76
2023/02/16 06:38:51;;;;;;;62.25;38.97;;;7.20;99.90;;;;;;4995496;28;93294;-76
2023/02/16 06:41:30;;;;;;;61.10;40.72;;;7.20;99.90;;;;;;4978793;28;92453;-76
2023/02/16 06:44:04;;;;;;;61.60;40.83;;;7.20;99.90;;;;;;4997063;28;92482;-76
2023/02/16 06:46:31;;;;;;;;;;;7.20;99.90;;;;;;4994520;28;95826;-75
2023/02/16 06:48:58;;;;;;;55.70;37.13;;;7.20;99.90;;;;;;4996779;28;98164;-74
2023/02/16 06:51:26;;;;;;;65.10;39.30;;;7.10;99.90;;;;;;4995298;28;92527;-75
2023/02/16 06:53:53;;;;;;;60.63;39.53;;;7.20;99.90;;;;;;4995292;28;92461;-75
2023/02/16 06:56:20;;;;;;;66.65;40.88;;;7.20;99.90;;;;;;4994866;28;95080;-75
2023/02/16 06:58:47;;;;;;;61.65;40.58;;;7.20;99.90;;;;;;4996360;28;93175;-75
2023/02/16 07:01:16;;;;;;;64.38;40.13;;;7.20;99.90;;;;;;4995311;28;92477;-75
2023/02/16 07:03:44;;;;;;;63.88;40.05;;;7.30;99.90;;;;;;4995470;28;91620;-76
2023/02/16 07:06:10;;;;;;;63.05;40.58;;;7.30;99.90;;;;;;4978551;28;94719;-76
2023/02/16 07:08:37;;;;;;;62.50;38.78;;;7.30;99.90;;;;;;4996266;28;92996;-76
2023/02/16 07:11:05;;;;;;;60.78;38.97;;;7.40;99.90;;;;;;4977319;28;94917;-76
2023/02/16 07:13:35;;;;;;;63.85;40.58;;;7.40;99.90;;;;;;4996293;28;92467;-76
2023/02/16 07:16:05;;;;;;;61.35;38.65;;;7.40;99.90;;;;;;4995966;28;93231;-76
2023/02/16 07:18:32;;;;;;;64.18;41.08;;;7.50;99.90;;;;;;4994792;28;93144;-76
2023/02/16 07:21:00;;;;;;;62.65;40.03;;;7.50;99.90;;;;;;4996277;28;92348;-76
2023/02/16 07:23:27;;;;;;;61.20;38.25;;;7.50;99.90;;;;;;4993872;28;92731;-76
2023/02/16 07:25:54;;;;;;;59.50;37.67;;;7.60;99.90;;;;;;4995968;28;93365;-76
2023/02/16 07:28:21;;;;;;;64.40;41.08;;;7.60;99.90;;;;;;4996316;28;93192;-76
2023/02/16 07:30:48;;;;;;;58.72;37.75;;;7.70;99.90;;;;;;4994559;28;92529;-76
2023/02/16 07:33:16;;;;;;;62.00;40.70;;;7.70;99.90;;;;;;4996200;28;93029;-76
2023/02/16 07:35:43;;;;;;;56.67;35.83;;;7.80;99.90;;;;;;4993081;28;94898;-76
2023/02/16 07:38:10;;;;;;;54.33;35.75;;;7.80;99.90;;;;;;4995394;28;103413;-76
2023/02/16 07:40:37;;;;;;;59.58;39.20;;;7.80;99.90;;;;;;4977845;28;93054;-76
2023/02/16 07:43:06;;;;;;;57.60;37.92;;;7.80;99.90;;;;;;4994543;28;92604;-76
2023/02/16 07:45:34;;;;;;;57.38;38.67;;;7.80;99.90;;;;;;4995144;28;93942;-76
2023/02/16 07:48:01;;;;;;;57.65;38.05;;;7.90;99.90;;;;;;4993959;28;95838;-76
2023/02/16 07:50:28;;;;;;;55.40;36.90;;;7.90;99.90;;;;;;4994407;28;92616;-76
2023/02/16 07:52:55;;;;;;;57.08;37.50;;;7.90;99.90;;;;;;4994671;28;91688;-76
2023/02/16 07:55:22;;;;;;;56.92;39.33;;;8.00;99.90;;;;;;4995112;28;93311;-75
2023/02/16 07:57:53;;;;;;;57.85;39.80;;;8.00;99.90;;;;;;4977317;28;96661;-76
2023/02/16 08:00:21;;;;;;;60.15;38.25;;;8.00;99.90;;;;;;4976702;28;94850;-76
2023/02/16 08:02:48;;;;;;;55.65;39.00;;;8.10;99.90;;;;;;4995449;28;92443;-76
2023/02/16 08:05:16;;;;;;;60.72;38.97;;;8.20;99.90;;;;;;4977598;28;95979;-76
2023/02/16 08:07:43;;;;;;;56.50;39.40;;;8.20;99.90;;;;;;4995257;28;92516;-76
2023/02/16 08:10:13;;;;;;;59.25;39.22;;;8.30;99.90;;;;;;4994098;28;92403;-76
2023/02/16 08:12:41;;;;;;;59.47;39.65;;;8.30;99.90;;;;;;4995236;28;92479;-76
2023/02/16 08:15:08;;;;;;;58.95;39.20;;;8.40;99.90;;;;;;4994107;28;94200;-76
2023/02/16 08:17:36;;;;;;;57.33;37.47;;;8.50;99.90;;;;;;4994272;28;93036;-75
2023/02/16 08:20:06;;;;;;;55.40;36.60;;;8.60;99.90;;;;;;4994047;28;92529;-76
2023/02/16 08:22:34;;;;;;;56.20;39.38;;;8.70;99.90;;;;;;4993971;28;92637;-76
2023/02/16 08:25:01;;;;;;;56.78;37.75;;;8.70;99.90;;;;;;4994272;28;95346;-76
2023/02/16 08:27:29;;;;;;;54.33;38.35;;;8.80;99.90;;;;;;4993114;28;104369;-76
2023/02/16 08:29:56;;;;;;;55.25;38.90;;;8.80;99.90;;;;;;4993553;28;92641;-76
2023/02/16 08:32:24;;;;;;;62.05;38.63;;;8.90;99.90;;;;;;4977533;28;93145;-76
2023/02/16 08:34:51;;;;;;;52.35;36.65;;;9.00;99.90;;;;;;4976910;28;93343;-76
2023/02/16 08:37:18;;;;;;;56.40;39.83;;;9.00;99.90;;;;;;4977323;28;95573;-76
2023/02/16 08:39:45;;;;;;;57.92;39.60;;;9.00;99.90;;;;;;4993653;28;92582;-76
2023/02/16 08:42:12;;;;;;;63.70;39.70;;;9.00;99.90;;;;;;4994397;28;91800;-75
2023/02/16 08:44:41;;;;;;;54.88;38.67;;;9.10;99.90;;;;;;4976949;28;95724;-75
2023/02/16 08:47:09;;;;;;;59.67;39.70;;;9.10;99.90;;;;;;4993549;28;95552;-75
2023/02/16 08:49:38;;;;;;;58.05;38.25;;;9.10;99.90;;;;;;4992669;28;94960;-75
2023/02/16 08:52:05;;;;;;;56.05;38.22;;;9.10;99.90;;;;;;4994918;28;92687;-75
2023/02/16 08:54:32;;;;;;;56.35;37.33;;;9.10;99.90;;;;;;4993538;28;93071;-75
2023/02/16 08:57:01;;;;;;;54.83;38.38;;;9.10;99.90;;;;;;4992884;28;93112;-75
2023/02/16 08:59:29;;;;;;;58.92;39.80;;;9.10;99.90;;;;;;4994804;28;92424;-75
2023/02/16 09:01:57;;;;;;;55.15;37.80;;;9.00;99.90;;;;;;4976825;28;93090;-75
2023/02/16 09:04:27;;;;;;;58.00;38.50;;;9.00;99.90;;;;;;4977064;28;93249;-75
2023/02/16 09:06:56;;;;;;;57.22;40.55;;;9.00;99.90;;;;;;4993236;28;95772;-75
2023/02/16 09:09:25;;;;;;;60.50;39.80;;;9.10;99.90;;;;;;4977069;28;92400;-75
2023/02/16 09:11:52;;;;;;;60.75;40.35;;;9.10;99.90;;;;;;4976540;28;92547;-75
2023/02/16 09:14:20;;;;;;;61.72;39.35;;;9.10;99.90;;;;;;4993285;28;95686;-75
2023/02/16 09:16:47;;;;;;;63.38;41.30;;;9.10;99.90;;;;;;4994408;28;95450;-76
2023/02/16 09:19:17;;;;;;;61.03;40.70;;;9.20;99.90;;;;;;4976908;28;92607;-75
2023/02/16 09:21:46;;;;;;;58.10;38.63;;;9.20;99.90;;;;;;4994266;28;92394;-75
2023/02/16 09:24:14;;;;;;;60.75;40.40;;;9.20;99.90;;;;;;4976640;28;95872;-75
2023/02/16 09:26:43;;;;;;;54.88;39.47;;;9.20;99.90;;;;;;4993124;28;93123;-75
2023/02/16 09:29:12;;;;;;;57.28;39.10;;;9.20;99.90;;;;;;4976558;28;92520;-75
2023/02/16 09:31:41;;;;;;;59.05;40.05;;;9.20;99.90;;;;;;4994574;28;91770;-76
2023/02/16 09:34:20;;;;;;;61.38;41.80;;;9.20;99.90;;;;;;4994022;28;93363;-76
2023/02/16 09:36:48;;;;;;;58.08;40.35;;;9.20;99.90;;;;;;4993063;28;93050;-76
2023/02/16 09:39:15;;;;;;;58.90;39.70;;;9.20;99.90;;;;;;4975822;28;94930;-76
2023/02/16 09:42:01;;;;;;;60.33;40.65;;;9.20;99.90;;;;;;4993007;28;92565;-76
2023/02/16 09:44:38;;;;;;;59.55;40.95;;;9.20;99.90;;;;;;4992637;28;95766;-76
2023/02/16 09:47:18;;;;;;;59.50;38.35;;;9.30;99.90;;;;;;4997087;28;93095;-76
2023/02/16 09:49:45;;;;;;;62.65;41.70;;;9.30;99.90;;;;;;4979824;28;92522;-76
2023/02/16 09:52:18;;;;;;;60.95;40.22;;;9.30;99.90;;;;;;4996265;28;92498;-76
2023/02/16 09:54:52;;;;;;;60.45;40.50;;;9.30;99.90;;;;;;4997721;28;93135;-76
2023/02/16 09:57:41;;;;;;;58.60;39.65;;;9.30;99.90;;;;;;4997210;28;93062;-76
2023/02/16 10:00:22;;;;;;;63.00;41.00;;;9.30;99.90;;;;;;4995967;28;92481;-76
2023/02/16 10:03:12;;;;;;;57.95;39.70;;;9.30;99.90;;;;;;4997593;28;92324;-76
2023/02/16 10:06:01;;;;;;;63.85;42.28;;;9.30;99.90;;;;;;4994939;28;95717;-76
2023/02/16 10:08:37;;;;;;;60.30;40.33;;;9.30;99.90;;;;;;4995945;28;98523;-76
2023/02/16 10:14:31;;;;;;;64.70;43.15;;;9.40;99.90;;;;;;4991185;28;94049;-76
2023/02/16 10:17:27;;;;;;;58.47;40.13;;;9.40;99.90;;;;;;4995554;28;95774;-76
2023/02/16 10:20:12;;;;;;;60.45;41.97;;;9.40;99.90;;;;;;4995262;28;95766;-76
2023/02/16 10:23:01;;;;;;;62.53;40.92;;;9.50;99.90;;;;;;4995798;28;92549;-76
2023/02/16 10:25:53;;;;;;;62.03;41.47;;;9.60;99.90;;;;;;4997676;28;92556;-76
2023/02/16 10:28:25;;;;;;;63.35;42.40;;;9.60;99.90;;;;;;4997020;28;92987;-76
2023/02/16 10:31:09;;;;;;;61.40;42.63;;;9.70;99.90;;;;;;4997086;28;93174;-76
2023/02/16 10:34:17;;;;;;;62.13;41.15;;;9.90;99.90;;;;;;4977919;28;94930;-76
2023/02/16 10:36:52;;;;;;;64.15;41.97;;;10.10;99.90;;;;;;4989066;28;92525;-76
2023/02/16 10:39:42;;;;;;;60.47;41.50;;;10.20;99.90;;;;;;4995522;28;95764;-76
2023/02/16 10:42:42;;;;;;;56.45;40.40;;;10.30;99.90;;;;;;4996553;28;92366;-76
2023/02/16 10:45:09;;;;;;;60.03;42.10;;;10.50;99.90;;;;;;4996525;28;92573;-76
2023/02/16 10:47:42;;;;;;;59.78;41.63;;;10.50;99.90;;;;;;4996793;28;92373;-76
2023/02/16 10:50:21;;;;;;;60.35;41.33;;;10.60;99.90;;;;;;4994953;28;96300;-77
2023/02/16 10:52:51;;;;;;;66.32;42.10;;;10.60;99.90;;;;;;4995788;28;91992;-76
2023/02/16 10:55:18;;;;;;;62.90;42.72;;;10.50;99.90;;;;;;4996373;28;92459;-76
2023/02/16 10:57:53;;;;;;;61.90;41.83;;;10.50;99.90;;;;;;4978285;28;92514;-76
2023/02/16 11:00:28;;;;;;;63.03;44.00;;;10.60;99.90;;;;;;4995251;28;95908;-77
2023/02/16 11:02:55;;;;;;;69.47;44.38;;;10.60;99.90;;;;;;4978425;28;98043;-76
2023/02/16 11:05:26;;;;;;;63.70;42.80;;;10.50;99.90;;;;;;4995238;28;92566;-76
2023/02/16 11:07:55;;;;;;;63.17;43.15;;;10.50;99.90;;;;;;4995515;28;93068;-77
2023/02/16 11:10:47;;;;;;;66.97;44.53;;;10.50;99.90;;;;;;4995902;28;93574;-76
2023/02/16 11:13:33;;;;;;;59.63;42.28;;;10.50;99.90;;;;;;4995018;28;93212;-77
2023/02/16 11:16:08;;;;;;;67.65;45.90;;;10.40;99.90;;;;;;4994807;28;92436;-77
2023/02/16 11:18:37;;;;;;;65.88;44.38;;;10.30;99.90;;;;;;4995353;28;91858;-76
2023/02/16 11:21:07;;;;;;;69.32;45.22;;;10.30;99.90;;;;;;4977972;28;95623;-76
2023/02/16 11:23:43;;;;;;;68.63;45.30;;;10.30;99.90;;;;;;4994283;28;99917;-77
2023/02/16 11:26:10;;;;;;;69.47;46.70;;;10.20;99.90;;;;;;4994842;28;94887;-76
2023/02/16 11:28:41;;;;;;;67.88;43.90;;;10.30;99.90;;;;;;4994648;28;92516;-77
2023/02/16 11:31:19;;;;;;;64.80;42.63;;;10.30;99.90;;;;;;4994474;28;93291;-76
2023/02/16 11:34:21;;;;;;;63.88;42.67;;;10.30;99.90;;;;;;4977903;28;95583;-77
2023/02/16 11:36:48;;;;;;;64.35;45.03;;;10.40;99.90;;;;;;4996139;28;92410;-75
2023/02/16 11:39:23;;;;;;;72.60;45.58;;;10.30;99.90;;;;;;4995640;28;92463;-75
2023/02/16 11:41:57;;;;;;;69.82;45.05;;;10.40;99.90;;;;;;4977838;28;96423;-75
2023/02/16 11:44:24;;;;;;;70.47;46.60;;;10.40;99.90;;;;;;4994653;28;95778;-76
2023/02/16 11:46:54;;;;;;;73.65;48.95;;;10.30;99.90;;;;;;4995685;28;92592;-76
2023/02/16 11:49:34;;;;;;;69.00;47.03;;;10.30;99.90;;;;;;4994409;28;92542;-76
2023/02/16 11:52:17;;;;;;;68.05;44.80;;;10.40;99.90;;;;;;4993005;28;95189;-75
2023/02/16 11:54:52;;;;;;;71.60;45.63;;;10.40;99.90;;;;;;4977615;28;98052;-76
2023/02/16 11:57:30;;;;;;;74.82;46.72;;;10.40;99.90;;;;;;4994167;28;92553;-76
2023/02/16 12:00:00;;;;;;;69.72;46.50;;;10.50;99.90;;;;;;4995692;28;92394;-76
2023/02/16 12:03:05;;;;;;;70.40;46.67;;;10.60;99.90;;;;;;4991949;28;92918;-75
2023/02/16 12:05:41;;;;;;;71.57;47.60;;;10.70;99.90;;;;;;4977520;28;95406;-75
2023/02/16 12:08:32;;;;;;;67.22;45.15;;;10.80;99.90;;;;;;4994979;28;92426;-76
2023/02/16 12:11:25;;;;;;;63.20;44.88;;;10.80;99.90;;;;;;4984325;28;91780;-76
2023/02/16 12:14:21;;;;;;;70.30;44.92;;;10.80;99.90;;;;;;4977381;28;95832;-75
2023/02/16 12:17:26;;;;;;;65.15;45.45;;;10.80;99.90;;;;;;4986657;28;95999;-75
2023/02/16 12:20:22;;;;;;;60.97;42.72;;;10.80;99.90;;;;;;4932786;28;94925;-76
2023/02/16 12:22:59;;;;;;;65.97;45.00;;;10.90;99.90;;;;;;4977496;28;92641;-76
2023/02/16 12:25:35;;;;;;;65.70;43.58;;;11.00;99.90;;;;;;4993520;28;95917;-75
2023/02/16 12:28:21;;;;;;;70.80;45.20;;;11.00;99.90;;;;;;4995159;28;92680;-75
2023/02/16 12:31:03;;;;;;;66.25;44.78;;;11.20;99.90;;;;;;4995437;28;92485;-75
2023/02/16 12:33:55;;;;;;;66.72;46.25;;;11.40;99.90;;;;;;4994840;28;92489;-75
2023/02/16 12:36:44;;;;;;;59.95;40.22;;;11.50;99.90;;;;;;4993724;28;93339;-75
2023/02/16 12:39:14;;;;;;;66.68;44.60;;;11.50;99.90;;;;;;4993996;28;93121;-76
2023/02/16 12:41:46;;;;;;;65.30;44.30;;;11.40;99.90;;;;;;4994896;28;92347;-76
2023/02/16 12:44:19;;;;;;;65.38;45.97;;;11.40;99.90;;;;;;4995119;28;92526;-75
2023/02/16 12:46:50;;;;;;;67.10;45.87;;;11.40;99.90;;;;;;4993768;28;95646;-76
2023/02/16 12:49:29;;;;;;;70.95;47.97;;;11.50;99.90;;;;;;4993749;28;95765;-76
2023/02/16 12:52:05;;;;;;;61.47;40.70;;;11.60;99.90;;;;;;4995039;28;92341;-76
2023/02/16 12:54:44;;;;;;;62.72;43.35;;;11.70;99.90;;;;;;4993065;28;92524;-76
2023/02/16 12:57:16;;;;;;;64.22;43.42;;;11.80;99.90;;;;;;4994479;28;93060;-76
2023/02/16 13:00:09;;;;;;;59.55;40.88;;;11.90;99.90;;;;;;4994886;28;93063;-76
2023/02/16 13:02:50;;;;;;;59.65;43.15;;;12.10;99.90;;;;;;4994761;28;93102;-76
2023/02/16 13:05:24;;;;;;;64.47;43.88;;;12.20;99.90;;;;;;4995106;28;91627;-76
2023/02/16 13:08:13;;;;;;;63.65;43.30;;;12.40;99.90;;;;;;4994752;28;93363;-76
2023/02/16 13:10:51;;;;;;;58.13;41.08;;;12.50;99.90;;;;;;4994721;28;93071;-76
2023/02/16 13:13:23;;;;;;;55.88;40.17;;;12.70;99.90;;;;;;4975371;28;94955;-76
2023/02/16 13:16:02;;;;;;;54.03;40.10;;;12.80;99.90;;;;;;4994788;28;92405;-76
2023/02/16 13:18:37;;;;;;;51.33;36.83;;;12.90;99.90;;;;;;4994418;28;93170;-76
2023/02/16 13:21:26;;;;;;;50.40;36.88;;;13.00;99.90;;;;;;4994692;28;95619;-76
2023/02/16 13:23:53;;;;;;;51.78;36.72;;;13.10;99.90;;;;;;4998119;28;93167;-76
2023/02/16 13:26:29;;;;;;;47.28;34.58;;;13.00;99.90;;;;;;4997968;28;92572;-76
2023/02/16 13:29:21;;;;;;;51.17;36.20;;;13.00;99.90;;;;;;4998203;28;93108;-76
2023/02/16 13:31:56;;;;;;;51.05;35.58;;;13.10;99.90;;;;;;4979937;28;94273;-76
2023/02/16 13:34:49;;;;;;;49.83;34.50;;;13.10;99.90;;;;;;4997946;28;92414;-75
2023/02/16 13:37:41;;;;;;;48.75;35.55;;;13.20;99.90;;;;;;4989677;28;92473;-75
2023/02/16 13:40:32;;;;;;;46.45;34.15;;;13.30;99.90;;;;;;4996699;28;95742;-76
2023/02/16 13:43:33;;;;;;;43.70;30.65;;;13.40;99.90;;;;;;4996292;28;98645;-76
2023/02/16 13:46:30;;;;;;;43.30;30.75;;;13.50;99.90;;;;;;4997917;28;92564;-76
2023/02/16 13:48:59;;;;;;;49.85;35.70;;;13.50;99.90;;;;;;4976948;28;92506;-76